KNLC/NLC METAR and TAF weather

Enter ICAO airport designator
Station Type Date Time Source
KNLC METAR 2020/09/25 18:56 UTC NOAA

KNLC 251856Z 35008KT 10SM FEW250 30/09 A3000 RMK AO2 SLP157 RH/25 T03000094


Station Type Date Time Source
KNLC Decoded METAR 2020/09/25 18:56 UTC NOAA

LEMOORE NAVAL AIR STATION, CA, United States (KNLC) 36-20N 119-57W 72M
Sep 25, 2020 - 02:56 PM EDT / 2020.09.25 1856 UTC
Wind: from the N (350 degrees) at 9 MPH (8 KT):0
Visibility: 10 mile(s):0
Sky conditions: mostly clear
Temperature: 86.0 F (30.0 C)
Dew Point: 48.9 F (9.4 C)
Relative Humidity: 27%
Pressure (altimeter): 30 in. Hg (1015 hPa)
ob: KNLC 251856Z 35008KT 10SM FEW250 30/09 A3000 RMK AO2 SLP157 RH/25 T03000094
cycle: 19

Station Type Date Time Source
KNLC TAF 2020/09/25 15:54 UTC NOAA

TAF KNLC 2515/2615 33009KT 9999 FEW250 QNH2990INS
TEMPO 2517/2523 34012G20KT FEW120 SCT250
BECMG 2603/2605 VRB06KT 9999 SKC QNH2992INS T30/2523Z T13/2614Z FS30122

Example: see airport list